Latest Weather Observations for Perth

IDW60901

Issued at 10:31 pm WST Monday 19 April 2021 (issued every 10 minutes, with the page automatically refreshed every 10 minutes)

About weather observations | Map of Perth area stations | Latest observations for Perth area | Other Formats
Station Details ID: 009225 Name: PERTH METRO Lat: -31.92 Lon: 115.87 Height: 24.9 m
Data from the previous 72 hours. | See also: Recent months at Perth
Date/Time
WST
Temp
°C
App
Temp
°C
Dew
Point
°C
Rel
Hum
%
Delta-T
°C
Wind Press
QNH
hPa
Press
MSL
hPa
Rain since
9am
mm
Dir  Spd
km/h
Gust
km/h
Spd
kts
Gust
kts
19/10:30pm 17.0 17.1 14.5 85 1.4 S 7 11 4 6 1019.3 1019.2 0.0
19/10:00pm 17.5 17.6 14.4 82 1.8 S 7 11 4 6 1019.3 1019.2 0.0
19/09:30pm 17.9 17.6 14.4 80 2.0 S 9 17 5 9 1019.4 1019.3 0.0
19/09:00pm 18.2 17.9 14.3 78 2.2 SSW 9 13 5 7 1019.3 1019.2 0.0
19/08:30pm 18.5 18.1 14.0 75 2.6 SSW 9 15 5 8 1019.2 1019.1 0.0
19/08:00pm 18.8 18.4 14.1 74 2.7 S 9 15 5 8 1019.0 1018.9 0.0
19/07:30pm 18.9 18.3 13.5 71 3.1 S 9 17 5 9 1019.2 1019.1 0.0
19/07:00pm 19.1 18.5 13.5 70 3.2 SSW 9 13 5 7 1018.8 1018.7 0.0
19/06:30pm 19.2 18.5 13.2 68 3.4 SSW 9 17 5 9 1018.5 1018.4 0.0
19/06:00pm 19.3 18.8 12.6 65 3.8 SSW 7 13 4 7 1018.5 1018.4 0.0
19/05:30pm 19.8 18.4 12.3 62 4.2 SSW 11 19 6 10 1018.2 1018.1 0.0
19/05:00pm 20.4 19.1 12.4 60 4.5 SSW 11 20 6 11 1018.2 1018.1 0.0
19/04:30pm 21.1 19.7 12.3 57 5.0 SSW 11 20 6 11 1018.1 1018.0 0.0
19/04:00pm 21.7 19.4 11.7 53 5.6 SSW 15 22 8 12 1018.2 1018.1 0.0
19/03:30pm 22.3 19.6 11.7 51 5.9 SSW 17 28 9 15 1018.1 1018.0 0.0
19/03:00pm 22.3 19.5 10.1 46 6.6 SW 15 20 8 11 1018.1 1018.0 0.0
19/02:30pm 23.3 20.6 10.4 44 7.1 SW 15 24 8 13 1018.2 1018.1 0.0
19/02:00pm 22.6 19.0 10.7 47 6.6 SW 20 33 11 18 1018.2 1018.1 0.0
19/01:30pm 22.8 20.8 11.5 49 6.3 SSW 13 24 7 13 1018.3 1018.2 0.0
19/01:00pm 22.7 20.4 11.7 49 6.2 S 15 24 8 13 1018.5 1018.4 0.0
19/12:30pm 21.8 19.6 12.1 54 5.5 S 15 26 8 14 1019.0 1018.9 0.0
19/12:00pm 22.0 20.0 12.8 56 5.2 S 15 22 8 12 1019.4 1019.3 0.0
19/11:30am 21.3 19.1 12.2 56 5.1 SSE 15 24 8 13 1019.7 1019.6 0.0
19/11:00am 21.5 20.3 12.9 58 4.9 SSE 11 17 6 9 1020.0 1019.9 0.0
19/10:30am 20.1 18.8 12.6 62 4.2 SSE 11 19 6 10 1020.3 1020.2 0.0
19/10:00am 19.3 18.8 12.6 65 3.7 SSE 7 11 4 6 1020.3 1020.2 0.0
19/09:30am 18.6 18.5 12.1 66 3.6 SSE 4 7 2 4 1020.4 1020.3 0.0
19/09:00am 16.9 17.0 11.6 71 2.9 SSE 2 6 1 3 1020.5 1020.4 0.0
19/08:30am 16.7 16.3 11.2 70 3.0 SSE 4 7 2 4 1020.6 1020.5 0.0
19/08:00am 15.8 15.1 11.4 75 2.4 SSE 6 11 3 6 1020.7 1020.6 0.0
19/07:30am 14.1 13.1 10.9 81 1.7 SSE 7 9 4 5 1020.5 1020.4 0.0
19/07:00am 13.5 13.7 10.5 82 1.6 CALM 0 0 0 0 1020.1 1020.0 0.0
19/06:30am 14.2 13.2 10.4 78 2.0 SSE 6 13 3 7 1020.1 1020.0 0.0
19/06:00am 14.5 13.0 10.7 78 2.0 SSE 9 13 5 7 1019.9 1019.8 0.0
19/05:30am 14.5 13.4 10.7 78 2.0 SSE 7 11 4 6 1019.8 1019.7 0.0
19/05:00am 13.2 12.2 10.4 83 1.5 SSE 6 11 3 6 1019.8 1019.7 0.0
19/04:30am 11.8 11.3 9.2 84 1.3 SSE 2 7 1 4 1019.8 1019.7 0.0
19/04:00am 12.2 11.7 9.2 82 1.5 SSE 2 6 1 3 1019.5 1019.4 0.0
19/03:30am 13.0 12.9 9.6 80 1.7 CALM 0 0 0 0 1019.4 1019.3 0.0
19/03:00am 14.0 13.9 9.6 75 2.3 CALM 0 0 0 0 1019.5 1019.4 0.0
19/02:30am 15.6 14.2 9.7 68 3.1 SSE 7 11 4 6 1019.6 1019.5 0.0
19/02:00am 16.2 14.5 9.8 66 3.3 SSE 9 15 5 8 1019.8 1019.7 0.0
19/01:30am 16.0 14.7 9.9 67 3.2 SSE 7 11 4 6 1019.9 1019.8 0.0
19/01:00am 16.1 14.8 10.0 67 3.2 SSE 7 9 4 5 1020.0 1019.9 0.0
19/12:30am 17.1 15.9 10.2 64 3.7 SSE 7 11 4 6 1020.3 1020.2 0.0
19/12:00am 17.7 16.1 10.3 62 3.9 SSE 9 13 5 7 1020.5 1020.4 0.0
 
Date/Time
WST
Temp
°C
App
Temp
°C
Dew
Point
°C
Rel
Hum
%
Delta-T
°C
Wind Press
QNH
hPa
Press
MSL
hPa
Rain since
9am
mm
Dir  Spd
km/h
Gust
km/h
Spd
kts
Gust
kts
18/11:30pm 18.2 16.6 10.1 59 4.3 SSE 9 13 5 7 1020.9 1020.8 0.0
18/11:00pm 18.8 16.4 10.1 57 4.6 SSE 13 17 7 9 1021.0 1020.9 0.0
18/10:30pm 19.1 16.7 10.1 56 4.8 SSE 13 20 7 11 1021.3 1021.2 0.0
18/10:00pm 19.4 16.7 10.4 56 4.8 SSE 15 22 8 12 1021.4 1021.3 0.0
18/09:30pm 19.5 17.0 11.0 58 4.6 SSE 15 22 8 12 1021.5 1021.4 0.0
18/09:00pm 19.8 17.3 11.0 57 4.8 SSE 15 22 8 12 1021.4 1021.3 0.0
18/08:30pm 20.2 17.8 11.4 57 4.9 SSE 15 20 8 11 1021.3 1021.2 0.0
18/08:00pm 20.6 18.5 11.2 55 5.2 SSE 13 22 7 12 1021.4 1021.3 0.0
18/07:30pm 21.1 18.8 10.6 51 5.7 S 13 24 7 13 1021.3 1021.2 0.0
18/07:00pm 21.4 19.3 9.6 47 6.3 S 11 20 6 11 1021.2 1021.1 0.0
18/06:30pm 22.0 19.1 9.5 45 6.7 S 15 24 8 13 1020.9 1020.8 0.0
18/06:00pm 22.3 19.9 10.1 46 6.6 SSW 13 20 7 11 1020.8 1020.7 0.0
18/05:30pm 22.9 20.0 9.7 43 7.2 SSW 15 28 8 15 1020.5 1020.4 0.0
18/05:00pm 23.6 20.6 9.2 40 7.8 SSW 15 22 8 12 1020.3 1020.2 0.0
18/04:30pm 24.6 21.2 9.3 38 8.3 SSW 17 28 9 15 1020.2 1020.1 0.0
18/04:00pm 25.4 22.2 8.4 34 9.1 SSW 15 26 8 14 1020.2 1020.1 0.0
18/03:30pm 26.0 22.5 8.9 34 9.3 SSW 17 26 9 14 1020.3 1020.2 0.0
18/03:00pm 27.8 25.9 6.6 26 11.2 SE 6 17 3 9 1020.1 1020.0 0.0
18/02:30pm 27.2 24.2 4.3 23 11.6 SE 9 15 5 8 1020.3 1020.2 0.0
18/02:00pm 27.8 25.1 5.4 24 11.6 E 9 13 5 7 1020.7 1020.6 0.0
18/01:30pm 27.8 25.2 6.0 25 11.4 ESE 9 15 5 8 1021.1 1021.0 0.0
18/01:00pm 27.0 24.2 5.3 25 11.1 SE 9 15 5 8 1021.6 1021.5 0.0
18/12:30pm 27.6 24.8 5.2 24 11.5 ENE 9 17 5 9 1022.3 1022.2 0.0
18/12:00pm 26.6 23.9 5.5 26 10.8 ENE 9 15 5 8 1022.8 1022.7 0.0
18/11:30am 25.9 23.4 6.5 29 10.1 ESE 9 15 5 8 1023.4 1023.3 0.0
18/11:00am 24.5 22.3 8.0 35 8.7 SE 9 17 5 9 1023.8 1023.7 0.0
18/10:30am 24.1 22.2 7.7 35 8.6 E 7 13 4 7 1024.2 1024.1 0.0
18/10:00am 22.4 20.2 7.8 39 7.6 E 9 13 5 7 1024.4 1024.3 0.0
18/09:30am 21.0 19.1 7.6 42 6.9 E 7 11 4 6 1024.6 1024.5 0.0
18/09:00am 20.4 18.7 8.4 46 6.2 E 7 13 4 7 1025.0 1024.9 0.0
18/08:30am 19.1 17.3 8.1 49 5.7 ENE 7 13 4 7 1025.2 1025.1 0.0
18/08:00am 17.7 15.5 7.7 52 5.0 E 9 17 5 9 1025.1 1025.0 0.0
18/07:30am 15.9 13.5 7.1 56 4.4 ENE 9 15 5 8 1024.8 1024.7 0.0
18/07:00am 14.9 12.4 6.7 58 4.0 ENE 9 15 5 8 1024.7 1024.6 0.0
18/06:30am 13.7 11.8 6.8 63 3.3 ENE 6 11 3 6 1024.6 1024.5 0.0
18/06:00am 12.1 10.9 6.6 69 2.6 ENE 2 6 1 3 1024.5 1024.4 0.0
18/05:30am 13.1 12.3 6.7 65 3.1 CALM 0 0 0 0 1024.5 1024.4 0.0
18/05:00am 13.2 11.3 6.8 65 3.1 S 6 9 3 5 1024.1 1024.0 0.0
18/04:30am 12.5 11.5 7.4 71 2.5 S 2 11 1 6 1023.9 1023.8 0.0
18/04:00am 12.2 10.7 6.9 70 2.5 S 4 7 2 4 1024.0 1023.9 0.0
18/03:30am 11.8 10.7 7.1 73 2.3 S 2 6 1 3 1023.8 1023.7 0.0
18/03:00am 12.2 11.6 7.3 72 2.4 CALM 0 6 0 3 1023.7 1023.6 0.0
18/02:30am 12.8 11.5 7.5 70 2.6 S 4 6 2 3 1023.8 1023.7 0.0
18/02:00am 13.3 12.0 7.7 69 2.7 S 4 7 2 4 1024.1 1024.0 0.0
18/01:30am 12.7 11.8 7.8 72 2.4 S 2 7 1 4 1024.4 1024.3 0.0
18/01:00am 12.4 12.1 8.5 77 1.9 CALM 0 0 0 0 1024.5 1024.4 0.0
18/12:30am 12.9 12.7 9.2 78 1.9 CALM 0 0 0 0 1024.7 1024.6 0.0
18/12:00am 13.2 13.2 9.8 80 1.7 CALM 0 0 0 0 1024.5 1024.4 0.0
 
Date/Time
WST
Temp
°C
App
Temp
°C
Dew
Point
°C
Rel
Hum
%
Delta-T
°C
Wind Press
QNH
hPa
Press
MSL
hPa
Rain since
9am
mm
Dir  Spd
km/h
Gust
km/h
Spd
kts
Gust
kts
17/11:30pm 13.5 13.3 9.2 75 2.2 CALM 0 0 0 0 1024.6 1024.5 0.0
17/11:00pm 14.3 14.3 9.7 74 2.4 CALM 0 0 0 0 1024.7 1024.6 0.0
17/10:30pm 14.7 14.6 9.5 71 2.7 CALM 0 0 0 0 1024.9 1024.8 0.0
17/10:00pm 15.8 15.7 9.5 66 3.3 CALM 0 0 0 0 1025.0 1024.9 0.0
17/09:30pm 17.0 17.0 9.7 62 3.8 CALM 0 6 0 3 1025.0 1024.9 0.0
17/09:00pm 18.3 17.1 9.6 57 4.6 S 6 7 3 4 1025.0 1024.9 0.0
17/08:30pm 19.9 18.5 9.5 51 5.5 S 7 9 4 5 1024.8 1024.7 0.0
17/08:00pm 20.2 18.8 9.7 51 5.6 SSE 7 11 4 6 1024.8 1024.7 0.0
17/07:30pm 20.4 19.2 9.6 50 5.8 SSE 6 9 3 5 1024.6 1024.5 0.0
17/07:00pm 21.0 19.5 8.6 45 6.5 SSE 6 7 3 4 1024.4 1024.3 0.0
17/06:30pm 22.0 19.8 6.3 36 8.0 SSE 7 9 4 5 1024.2 1024.1 0.0
17/06:00pm 23.1 20.8 5.5 32 8.8 SSE 7 11 4 6 1024.1 1024.0 0.0
17/05:30pm 24.5 22.0 4.8 28 9.9 SE 7 13 4 7 1023.7 1023.6 0.0
17/05:00pm 25.8 23.3 6.4 29 10.1 ESE 9 13 5 7 1023.4 1023.3 0.0
17/04:30pm 27.0 24.3 3.5 22 11.7 E 7 13 4 7 1023.3 1023.2 0.0
17/04:00pm 27.3 24.4 2.4 20 12.1 ENE 7 17 4 9 1023.3 1023.2 0.0
17/03:30pm 27.2 24.0 3.0 21 12.0 E 9 15 5 8 1023.3 1023.2 0.0
17/03:00pm 26.9 23.8 3.4 22 11.6 ESE 9 17 5 9 1023.4 1023.3 0.0
17/02:30pm 27.5 24.6 4.5 23 11.7 SE 9 17 5 9 1023.5 1023.4 0.0
17/02:00pm 27.5 24.7 3.2 21 12.0 E 7 15 4 8 1023.8 1023.7 0.0
17/01:30pm 27.1 24.6 4.8 24 11.4 ESE 7 13 4 7 1024.0 1023.9 0.0
17/01:00pm 26.7 23.3 3.9 23 11.4 SE 11 17 6 9 1024.4 1024.3 0.0
17/12:30pm 26.7 24.1 6.2 27 10.7 E 9 17 5 9 1024.9 1024.8 0.0
17/12:00pm 26.0 23.9 6.6 29 10.1 ENE 7 13 4 7 1025.3 1025.2 0.0
17/11:30am 25.8 24.1 8.3 33 9.4 ENE 7 17 4 9 1025.8 1025.7 0.0
17/11:00am 24.2 21.1 7.4 34 8.8 NE 13 19 7 10 1026.1 1026.0 0.0
17/10:30am 23.7 21.1 7.8 36 8.4 ENE 11 20 6 11 1026.3 1026.2 0.0
17/10:00am 22.8 20.7 8.1 39 7.7 NE 9 19 5 10 1026.5 1026.4 0.0
17/09:30am 21.3 19.4 8.9 45 6.6 ENE 9 17 5 9 1026.6 1026.5 0.0
17/09:00am 20.3 18.6 9.8 51 5.6 ENE 9 17 5 9 1026.8 1026.7 0.0
17/08:30am 17.9 16.0 9.0 56 4.6 ESE 9 13 5 7 1026.9 1026.8 0.0
17/08:00am 17.0 15.0 8.7 58 4.2 E 9 17 5 9 1026.8 1026.7 0.0
17/07:30am 15.6 13.5 8.1 61 3.8 ENE 9 17 5 9 1026.6 1026.5 0.0
17/07:00am 14.6 12.8 7.9 64 3.3 E 7 17 4 9 1026.5 1026.4 0.0
17/06:30am 14.2 12.5 7.7 65 3.2 ESE 6 15 3 8 1026.3 1026.2 0.0
17/06:00am 14.3 12.6 7.6 64 3.3 ENE 6 11 3 6 1026.1 1026.0 0.0
17/05:30am 14.5 12.8 7.5 63 3.5 ENE 6 9 3 5 1026.0 1025.9 0.0
17/05:00am 15.1 13.2 7.6 61 3.7 ENE 7 15 4 8 1026.0 1025.9 0.0
17/04:30am 16.1 13.8 7.6 57 4.3 E 9 17 5 9 1026.1 1026.0 0.0
17/04:00am 16.1 13.8 7.6 57 4.2 ENE 9 19 5 10 1025.9 1025.8 0.0
17/03:30am 16.4 14.1 7.6 56 4.4 E 9 19 5 10 1025.8 1025.7 0.0
17/03:00am 16.0 14.1 7.7 58 4.1 E 7 13 4 7 1025.9 1025.8 0.0
17/02:30am 16.0 14.1 7.7 58 4.2 ENE 7 17 4 9 1026.0 1025.9 0.0
17/02:00am 15.9 14.3 7.9 59 4.0 ENE 6 20 3 11 1025.9 1025.8 0.0
17/01:30am 16.9 15.2 7.5 54 4.7 ESE 6 11 3 6 1025.9 1025.8 0.0
17/01:00am 16.9 15.0 7.5 54 4.7 E 7 13 4 7 1025.9 1025.8 0.0
17/12:30am 16.9 15.2 7.5 54 4.7 ENE 6 11 3 6 1026.0 1025.9 0.0
17/12:00am 17.8 15.9 7.5 51 5.2 E 7 15 4 8 1026.1 1026.0 0.0
 
Date/Time
WST
Temp
°C
App
Temp
°C
Dew
Point
°C
Rel
Hum
%
Delta-T
°C
Wind Press
QNH
hPa
Press
MSL
hPa
Rain since
9am
mm
Dir  Spd
km/h
Gust
km/h
Spd
kts
Gust
kts
16/11:30pm 18.5 16.5 7.3 48 5.7 E 7 13 4 7 1026.0 1025.9 0.0
16/11:00pm 18.7 16.8 7.5 48 5.7 E 7 15 4 8 1026.0 1025.9 0.0

Latest Capital City Observations: Canberra | Sydney | Melbourne | Brisbane | Adelaide | Perth | Hobart | Darwin

Other formats

Comma delimited format used in spreadsheet applications
http://www.bom.gov.au/fwo/IDW60901/IDW60901.94608.axf

JavaScript Object Notation format (JSON) in row-major order
http://www.bom.gov.au/fwo/IDW60901/IDW60901.94608.json

Data quality

Most of these data are generated automatically and are frequently updated. Quality checks on data are not normally performed. It is possible for incorrect values to appear. Refer to information at About Latest Weather Observations and please check the disclaimer before using these data.